VTD663 UWSG-UWSG
Flight info
| Callsign | VTD663 |
|---|---|
| Flight time | 0h 50m |
| Altitude | 1500 |
| Route | RA/A015 |
| Aircraft | C172/L-SDFGY/C |
Departure
| Time | 2026-04-25 15:30 |
|---|---|
| Airport | Gagarin International Airport (UWSG) |
Arrival
| Time | 2026-04-25 16:20 |
|---|---|
| Airport | Gagarin International Airport (UWSG) |
| Time | Latitude | Longitude | Altitude | Speed | Heading |
|---|---|---|---|---|---|
| 2026-04-25 15:09 | 51.71555 | 46.17257 | 4 ft | 0 kts | 151° |
| 2026-04-25 15:12 | 51.71554 | 46.17257 | 4 ft | 0 kts | 150° |
| 2026-04-25 15:15 | 51.71556 | 46.17163 | 4 ft | 0 kts | 182° |
| 2026-04-25 15:22 | 51.71540 | 46.17163 | 4 ft | 4 kts | 172° |
| 2026-04-25 15:23 | 51.71526 | 46.17178 | 4 ft | 2 kts | 116° |
| 2026-04-25 15:23 | 51.71525 | 46.17212 | 4 ft | 6 kts | 90° |
| 2026-04-25 15:23 | 51.71522 | 46.17321 | 4 ft | 11 kts | 90° |
| 2026-04-25 15:23 | 51.71493 | 46.17421 | 4 ft | 5 kts | 171° |
| 2026-04-25 15:24 | 51.71434 | 46.17419 | 4 ft | 11 kts | 185° |
| 2026-04-25 15:24 | 51.71377 | 46.17416 | 4 ft | 0 kts | 182° |
| 2026-04-25 15:25 | 51.71367 | 46.17415 | 4 ft | 3 kts | 181° |
| 2026-04-25 15:26 | 51.71320 | 46.17413 | 4 ft | 9 kts | 184° |
| 2026-04-25 15:26 | 51.71262 | 46.17457 | 4 ft | 10 kts | 114° |
| 2026-04-25 15:26 | 51.71257 | 46.17585 | 4 ft | 13 kts | 91° |
| 2026-04-25 15:26 | 51.71249 | 46.17767 | 4 ft | 18 kts | 92° |
| 2026-04-25 15:27 | 51.71243 | 46.18007 | 4 ft | 23 kts | 98° |
| 2026-04-25 15:27 | 51.71226 | 46.18272 | 4 ft | 25 kts | 90° |
| 2026-04-25 15:27 | 51.71210 | 46.18806 | 4 ft | 24 kts | 93° |
| 2026-04-25 15:28 | 51.71220 | 46.18952 | 4 ft | 3 kts | 278° |
| 2026-04-25 15:28 | 51.71220 | 46.18920 | 4 ft | 5 kts | 268° |
| 2026-04-25 15:28 | 51.71220 | 46.18916 | 4 ft | 0 kts | 269° |
| 2026-04-25 15:29 | 51.71222 | 46.18814 | 4 ft | 37 kts | 269° |
| 2026-04-25 15:29 | 51.71244 | 46.18168 | 151 ft | 65 kts | 270° |
| 2026-04-25 15:29 | 51.71247 | 46.17462 | 464 ft | 61 kts | 269° |
| 2026-04-25 15:29 | 51.71257 | 46.16745 | 672 ft | 67 kts | 271° |
| 2026-04-25 15:30 | 51.71272 | 46.15986 | 915 ft | 67 kts | 271° |
| 2026-04-25 15:30 | 51.71127 | 46.15261 | 1087 ft | 80 kts | 227° |
| 2026-04-25 15:30 | 51.70632 | 46.14776 | 1271 ft | 83 kts | 227° |
| 2026-04-25 15:30 | 51.70184 | 46.14179 | 1469 ft | 81 kts | 227° |
| 2026-04-25 15:31 | 51.69718 | 46.13562 | 1480 ft | 92 kts | 228° |
| 2026-04-25 15:31 | 51.69217 | 46.12887 | 1479 ft | 94 kts | 228° |
| 2026-04-25 15:31 | 51.68718 | 46.12210 | 1479 ft | 95 kts | 228° |
| 2026-04-25 15:31 | 51.68208 | 46.11514 | 1479 ft | 96 kts | 228° |
| 2026-04-25 15:32 | 51.67697 | 46.10815 | 1478 ft | 96 kts | 228° |
| 2026-04-25 15:32 | 51.67189 | 46.10116 | 1478 ft | 96 kts | 228° |
| 2026-04-25 15:32 | 51.66685 | 46.09420 | 1478 ft | 96 kts | 228° |
| 2026-04-25 15:33 | 51.65664 | 46.08003 | 1478 ft | 96 kts | 229° |
| 2026-04-25 15:33 | 51.65305 | 46.07168 | 1496 ft | 89 kts | 261° |
| 2026-04-25 15:33 | 51.65389 | 46.06201 | 1516 ft | 88 kts | 283° |
| 2026-04-25 15:33 | 51.65549 | 46.05219 | 1481 ft | 91 kts | 283° |
| 2026-04-25 15:34 | 51.65715 | 46.04234 | 1479 ft | 91 kts | 286° |
| 2026-04-25 15:34 | 51.65947 | 46.03284 | 1481 ft | 91 kts | 288° |
| 2026-04-25 15:34 | 51.66184 | 46.02329 | 1480 ft | 91 kts | 289° |
| 2026-04-25 15:34 | 51.66264 | 46.02008 | 1479 ft | 91 kts | 289° |
| 2026-04-25 15:35 | 51.66827 | 45.99461 | 1467 ft | 91 kts | 279° |
| 2026-04-25 15:35 | 51.66919 | 45.98449 | 1459 ft | 91 kts | 272° |
| 2026-04-25 15:35 | 51.66993 | 45.97436 | 1470 ft | 89 kts | 276° |
| 2026-04-25 15:36 | 51.67152 | 45.95453 | 1478 ft | 89 kts | 276° |
| 2026-04-25 15:36 | 51.67235 | 45.94443 | 1477 ft | 90 kts | 277° |
| 2026-04-25 15:36 | 51.67317 | 45.93454 | 1477 ft | 90 kts | 277° |
| 2026-04-25 15:37 | 51.67401 | 45.92453 | 1479 ft | 90 kts | 277° |
| 2026-04-25 15:37 | 51.67476 | 45.91458 | 1476 ft | 90 kts | 272° |
| 2026-04-25 15:37 | 51.67434 | 45.90440 | 1475 ft | 90 kts | 266° |
| 2026-04-25 15:37 | 51.67359 | 45.89442 | 1468 ft | 91 kts | 258° |
| 2026-04-25 15:38 | 51.67058 | 45.88498 | 1451 ft | 93 kts | 244° |
| 2026-04-25 15:38 | 51.66726 | 45.87613 | 1474 ft | 91 kts | 244° |
| 2026-04-25 15:38 | 51.66400 | 45.86741 | 1477 ft | 92 kts | 244° |
| 2026-04-25 15:38 | 51.66070 | 45.85855 | 1477 ft | 92 kts | 245° |
| 2026-04-25 15:39 | 51.65741 | 45.84965 | 1478 ft | 92 kts | 245° |
| 2026-04-25 15:39 | 51.65413 | 45.84077 | 1478 ft | 92 kts | 245° |
| 2026-04-25 15:39 | 51.65084 | 45.83183 | 1478 ft | 92 kts | 245° |
| 2026-04-25 15:39 | 51.64800 | 45.82256 | 1472 ft | 90 kts | 262° |
| 2026-04-25 15:40 | 51.65015 | 45.81350 | 1486 ft | 94 kts | 312° |
| 2026-04-25 15:40 | 51.65204 | 45.81165 | 1476 ft | 100 kts | 328° |
| 2026-04-25 15:40 | 51.66331 | 45.80636 | 1479 ft | 101 kts | 334° |
| 2026-04-25 15:40 | 51.67001 | 45.80309 | 1475 ft | 101 kts | 334° |
| 2026-04-25 15:41 | 51.67677 | 45.79981 | 1475 ft | 100 kts | 334° |
| 2026-04-25 15:41 | 51.68340 | 45.79662 | 1478 ft | 101 kts | 334° |
| 2026-04-25 15:41 | 51.69012 | 45.79340 | 1482 ft | 101 kts | 334° |
| 2026-04-25 15:41 | 51.69132 | 45.79283 | 1482 ft | 101 kts | 334° |
| 2026-04-25 15:45 | 51.69676 | 45.78976 | 1479 ft | 100 kts | 329° |
| 2026-04-25 15:45 | 51.69869 | 45.78797 | 1460 ft | 98 kts | 315° |
| 2026-04-25 15:46 | 51.70298 | 45.77247 | 1446 ft | 93 kts | 294° |
| 2026-04-25 15:46 | 51.70639 | 45.76401 | 1532 ft | 86 kts | 297° |
| 2026-04-25 15:46 | 51.70818 | 45.75529 | 1586 ft | 82 kts | 270° |
| 2026-04-25 15:46 | 51.70813 | 45.74596 | 1575 ft | 86 kts | 271° |
| 2026-04-25 15:47 | 51.70849 | 45.73593 | 1470 ft | 92 kts | 273° |
| 2026-04-25 15:47 | 51.70896 | 45.72579 | 1477 ft | 90 kts | 273° |
| 2026-04-25 15:47 | 51.70946 | 45.71566 | 1487 ft | 90 kts | 273° |
| 2026-04-25 15:47 | 51.70996 | 45.70554 | 1479 ft | 91 kts | 273° |
| 2026-04-25 15:48 | 51.71049 | 45.69530 | 1479 ft | 90 kts | 273° |
| 2026-04-25 15:48 | 51.71102 | 45.68521 | 1478 ft | 90 kts | 274° |
| 2026-04-25 15:48 | 51.71156 | 45.67515 | 1480 ft | 90 kts | 274° |
| 2026-04-25 15:48 | 51.71153 | 45.66519 | 1484 ft | 88 kts | 266° |
| 2026-04-25 15:49 | 51.71114 | 45.65532 | 1501 ft | 88 kts | 267° |
| 2026-04-25 15:49 | 51.71083 | 45.64543 | 1492 ft | 90 kts | 267° |
| 2026-04-25 15:49 | 51.71054 | 45.63519 | 1483 ft | 91 kts | 268° |
| 2026-04-25 15:49 | 51.71083 | 45.62506 | 1480 ft | 90 kts | 272° |
| 2026-04-25 15:50 | 51.71112 | 45.61503 | 1476 ft | 89 kts | 266° |
| 2026-04-25 15:50 | 51.70948 | 45.60511 | 1451 ft | 92 kts | 251° |
| 2026-04-25 15:50 | 51.70820 | 45.59523 | 1441 ft | 90 kts | 269° |
| 2026-04-25 15:50 | 51.70809 | 45.58535 | 1467 ft | 87 kts | 269° |
| 2026-04-25 15:51 | 51.70800 | 45.57550 | 1477 ft | 88 kts | 269° |
| 2026-04-25 15:51 | 51.70798 | 45.57229 | 1477 ft | 88 kts | 269° |
| 2026-04-25 15:51 | 51.70785 | 45.55559 | 1472 ft | 90 kts | 269° |
| 2026-04-25 15:51 | 51.70779 | 45.54561 | 1469 ft | 89 kts | 269° |
| 2026-04-25 15:52 | 51.70775 | 45.53566 | 1467 ft | 88 kts | 269° |
| 2026-04-25 15:52 | 51.70770 | 45.52577 | 1474 ft | 88 kts | 269° |
| 2026-04-25 15:52 | 51.70767 | 45.51588 | 1474 ft | 88 kts | 269° |
| 2026-04-25 15:52 | 51.70765 | 45.50600 | 1478 ft | 88 kts | 269° |
| 2026-04-25 15:53 | 51.70764 | 45.49601 | 1480 ft | 89 kts | 270° |
| 2026-04-25 15:53 | 51.70764 | 45.48597 | 1480 ft | 89 kts | 270° |
| 2026-04-25 15:53 | 51.70765 | 45.47587 | 1481 ft | 90 kts | 270° |
| 2026-04-25 15:53 | 51.70767 | 45.46578 | 1477 ft | 90 kts | 270° |
| 2026-04-25 15:54 | 51.70771 | 45.45574 | 1481 ft | 89 kts | 270° |
| 2026-04-25 15:54 | 51.70775 | 45.44561 | 1479 ft | 90 kts | 270° |
| 2026-04-25 15:54 | 51.70781 | 45.43552 | 1483 ft | 91 kts | 270° |
| 2026-04-25 15:54 | 51.70643 | 45.42581 | 1506 ft | 93 kts | 235° |
| 2026-04-25 15:55 | 51.70004 | 45.42256 | 1457 ft | 110 kts | 184° |
| 2026-04-25 15:55 | 51.69325 | 45.42951 | 1452 ft | 123 kts | 133° |
| 2026-04-25 15:55 | 51.69111 | 45.44291 | 1487 ft | 126 kts | 89° |
| 2026-04-25 15:55 | 51.69361 | 45.45615 | 1501 ft | 125 kts | 58° |
| 2026-04-25 15:56 | 51.69769 | 45.46862 | 1485 ft | 127 kts | 58° |
| 2026-04-25 15:56 | 51.70250 | 45.48043 | 1474 ft | 127 kts | 53° |
| 2026-04-25 15:56 | 51.70554 | 45.49428 | 1422 ft | 132 kts | 76° |
| 2026-04-25 15:56 | 51.70759 | 45.50840 | 1472 ft | 127 kts | 75° |
| 2026-04-25 15:57 | 51.70943 | 45.52230 | 1467 ft | 128 kts | 76° |
| 2026-04-25 15:57 | 51.71113 | 45.53631 | 1472 ft | 127 kts | 78° |
| 2026-04-25 15:57 | 51.71279 | 45.55032 | 1468 ft | 126 kts | 76° |
| 2026-04-25 15:57 | 51.71510 | 45.56387 | 1481 ft | 127 kts | 85° |
| 2026-04-25 15:58 | 51.71545 | 45.57823 | 1496 ft | 127 kts | 88° |
| 2026-04-25 15:58 | 51.71597 | 45.59246 | 1476 ft | 129 kts | 88° |
| 2026-04-25 15:58 | 51.71639 | 45.60697 | 1478 ft | 128 kts | 88° |
| 2026-04-25 15:58 | 51.71679 | 45.62128 | 1473 ft | 128 kts | 88° |
| 2026-04-25 15:59 | 51.71719 | 45.63568 | 1475 ft | 128 kts | 88° |
| 2026-04-25 15:59 | 51.71761 | 45.65002 | 1480 ft | 128 kts | 88° |
| 2026-04-25 15:59 | 51.71802 | 45.66440 | 1479 ft | 129 kts | 88° |
| 2026-04-25 15:59 | 51.71842 | 45.67878 | 1479 ft | 129 kts | 88° |
| 2026-04-25 16:00 | 51.71880 | 45.69322 | 1479 ft | 129 kts | 88° |
| 2026-04-25 16:00 | 51.71893 | 45.69809 | 1481 ft | 129 kts | 88° |
| 2026-04-25 16:00 | 51.71682 | 45.72166 | 1494 ft | 126 kts | 108° |
| 2026-04-25 16:00 | 51.71458 | 45.73545 | 1485 ft | 129 kts | 109° |
| 2026-04-25 16:01 | 51.71223 | 45.74938 | 1469 ft | 127 kts | 108° |
| 2026-04-25 16:01 | 51.70991 | 45.76318 | 1473 ft | 126 kts | 108° |
| 2026-04-25 16:01 | 51.70763 | 45.77666 | 1475 ft | 126 kts | 108° |
| 2026-04-25 16:01 | 51.70533 | 45.79031 | 1477 ft | 126 kts | 109° |
| 2026-04-25 16:02 | 51.70558 | 45.80445 | 1449 ft | 128 kts | 69° |
| 2026-04-25 16:02 | 51.70923 | 45.81740 | 1463 ft | 126 kts | 62° |
| 2026-04-25 16:02 | 51.71279 | 45.83028 | 1474 ft | 125 kts | 62° |
| 2026-04-25 16:02 | 51.71631 | 45.84300 | 1477 ft | 126 kts | 63° |
| 2026-04-25 16:03 | 51.71989 | 45.85594 | 1476 ft | 126 kts | 62° |
| 2026-04-25 16:03 | 51.72348 | 45.86896 | 1478 ft | 126 kts | 62° |
| 2026-04-25 16:03 | 51.72706 | 45.88198 | 1478 ft | 127 kts | 62° |
| 2026-04-25 16:03 | 51.73059 | 45.89484 | 1477 ft | 127 kts | 62° |
| 2026-04-25 16:04 | 51.73415 | 45.90785 | 1477 ft | 126 kts | 63° |
| 2026-04-25 16:04 | 51.73773 | 45.92096 | 1478 ft | 126 kts | 63° |
| 2026-04-25 16:04 | 51.74127 | 45.93395 | 1478 ft | 127 kts | 63° |
| 2026-04-25 16:04 | 51.74491 | 45.94676 | 1475 ft | 126 kts | 60° |
| 2026-04-25 16:05 | 51.74874 | 45.95975 | 1475 ft | 126 kts | 61° |
| 2026-04-25 16:05 | 51.75243 | 45.97245 | 1477 ft | 126 kts | 61° |
| 2026-04-25 16:05 | 51.75995 | 45.99836 | 1478 ft | 127 kts | 61° |
| 2026-04-25 16:06 | 51.76367 | 46.01125 | 1479 ft | 127 kts | 61° |
| 2026-04-25 16:06 | 51.76743 | 46.02430 | 1479 ft | 127 kts | 61° |
| 2026-04-25 16:06 | 51.77194 | 46.03640 | 1483 ft | 124 kts | 48° |
| 2026-04-25 16:06 | 51.77689 | 46.04780 | 1479 ft | 125 kts | 49° |
| 2026-04-25 16:07 | 51.78191 | 46.05935 | 1481 ft | 125 kts | 49° |
| 2026-04-25 16:07 | 51.78357 | 46.06319 | 1480 ft | 126 kts | 49° |
| 2026-04-25 16:07 | 51.79269 | 46.08115 | 1477 ft | 123 kts | 38° |
| 2026-04-25 16:07 | 51.79995 | 46.08646 | 1474 ft | 108 kts | 352° |
| 2026-04-25 16:08 | 51.80644 | 46.08297 | 1477 ft | 95 kts | 315° |
| 2026-04-25 16:08 | 51.81140 | 46.07606 | 1478 ft | 94 kts | 310° |
| 2026-04-25 16:08 | 51.81632 | 46.06886 | 1478 ft | 94 kts | 310° |
| 2026-04-25 16:08 | 51.82126 | 46.06180 | 1478 ft | 95 kts | 311° |
| 2026-04-25 16:09 | 51.82624 | 46.05485 | 1478 ft | 95 kts | 311° |
| 2026-04-25 16:09 | 51.83133 | 46.04789 | 1478 ft | 95 kts | 311° |
| 2026-04-25 16:09 | 51.83643 | 46.04108 | 1478 ft | 96 kts | 312° |
| 2026-04-25 16:09 | 51.84159 | 46.03429 | 1478 ft | 96 kts | 313° |
| 2026-04-25 16:10 | 51.84683 | 46.02750 | 1478 ft | 96 kts | 313° |
| 2026-04-25 16:10 | 51.85235 | 46.02128 | 1457 ft | 103 kts | 328° |
| 2026-04-25 16:10 | 51.85990 | 46.02298 | 1435 ft | 121 kts | 23° |
| 2026-04-25 16:10 | 51.86467 | 46.03442 | 1449 ft | 128 kts | 75° |
| 2026-04-25 16:11 | 51.86475 | 46.04861 | 1507 ft | 124 kts | 92° |
| 2026-04-25 16:11 | 51.86447 | 46.06273 | 1519 ft | 125 kts | 92° |
| 2026-04-25 16:11 | 51.86419 | 46.07686 | 1530 ft | 127 kts | 93° |
| 2026-04-25 16:11 | 51.86362 | 46.09089 | 1568 ft | 125 kts | 95° |
| 2026-04-25 16:12 | 51.86282 | 46.10498 | 1594 ft | 125 kts | 98° |
| 2026-04-25 16:12 | 51.86160 | 46.11883 | 1613 ft | 125 kts | 99° |
| 2026-04-25 16:12 | 51.86083 | 46.13301 | 1632 ft | 126 kts | 97° |
| 2026-04-25 16:12 | 51.86047 | 46.13776 | 1641 ft | 126 kts | 99° |
| 2026-04-25 16:13 | 51.85738 | 46.16060 | 1674 ft | 126 kts | 108° |
| 2026-04-25 16:13 | 51.85411 | 46.17378 | 1673 ft | 124 kts | 131° |
| 2026-04-25 16:13 | 51.84840 | 46.18367 | 1690 ft | 120 kts | 143° |
| 2026-04-25 16:13 | 51.84215 | 46.19329 | 1648 ft | 120 kts | 147° |
| 2026-04-25 16:14 | 51.83587 | 46.20227 | 1643 ft | 117 kts | 147° |
| 2026-04-25 16:14 | 51.82984 | 46.21027 | 1698 ft | 112 kts | 153° |
| 2026-04-25 16:14 | 51.82347 | 46.21761 | 1676 ft | 113 kts | 156° |
| 2026-04-25 16:14 | 51.81667 | 46.22388 | 1665 ft | 110 kts | 165° |
| 2026-04-25 16:15 | 51.80970 | 46.22877 | 1675 ft | 109 kts | 167° |
| 2026-04-25 16:15 | 51.80257 | 46.23370 | 1637 ft | 111 kts | 168° |
| 2026-04-25 16:15 | 51.79546 | 46.23804 | 1612 ft | 111 kts | 170° |
| 2026-04-25 16:15 | 51.78828 | 46.24197 | 1636 ft | 107 kts | 173° |
| 2026-04-25 16:16 | 51.78108 | 46.24545 | 1604 ft | 110 kts | 172° |
| 2026-04-25 16:16 | 51.77388 | 46.24825 | 1600 ft | 105 kts | 183° |
| 2026-04-25 16:16 | 51.76747 | 46.24500 | 1523 ft | 95 kts | 226° |
| 2026-04-25 16:16 | 51.76242 | 46.23884 | 1563 ft | 90 kts | 225° |
| 2026-04-25 16:17 | 51.75600 | 46.23541 | 1489 ft | 105 kts | 195° |
| 2026-04-25 16:17 | 51.74863 | 46.23624 | 1460 ft | 103 kts | 185° |
| 2026-04-25 16:17 | 51.74149 | 46.23687 | 1354 ft | 103 kts | 189° |
| 2026-04-25 16:17 | 51.73436 | 46.23668 | 1274 ft | 101 kts | 193° |
| 2026-04-25 16:18 | 51.72808 | 46.23576 | 1201 ft | 83 kts | 199° |
| 2026-04-25 16:18 | 51.72610 | 46.23525 | 1111 ft | 85 kts | 200° |
| 2026-04-25 16:18 | 51.71626 | 46.23325 | 791 ft | 84 kts | 195° |
| 2026-04-25 16:18 | 51.71172 | 46.22901 | 633 ft | 71 kts | 250° |
| 2026-04-25 16:19 | 51.71156 | 46.22145 | 532 ft | 64 kts | 272° |
| 2026-04-25 16:19 | 51.71166 | 46.21482 | 401 ft | 59 kts | 268° |
| 2026-04-25 16:19 | 51.71187 | 46.20829 | 275 ft | 57 kts | 271° |
| 2026-04-25 16:20 | 51.71213 | 46.19550 | 74 ft | 55 kts | 270° |
| 2026-04-25 16:20 | 51.71229 | 46.18953 | 11 ft | 44 kts | 271° |